Time;durP1;ratioP1;P1;durP2;ratioP2;P2;SDS_P1;SDS_P2;PMS_P1;PMS_P2;Temp;Humidity;BMP_temperature;BMP_pressure;BME280_temperature;BME280_humidity;BME280_pressure;Samples;Min_cycle;Max_cycle;Signal;HPM_P1;HPM_P2
2022/01/20 01:50:25;;;;;;;;;15.00;14.50;;;;;9.78;65.75;102511.66;5559454;23;45548;-73
2022/01/20 01:52:53;;;;;;;;;14.25;11.00;;;;;9.75;65.51;102509.88;4917856;28;45445;-74
2022/01/20 01:55:18;;;;;;;;;10.50;10.50;;;;;9.77;65.23;102520.53;4913070;28;45517;-73
2022/01/20 01:57:44;;;;;;;;;15.00;11.25;;;;;9.65;65.22;102513.44;4913046;28;46137;-74
2022/01/20 02:00:10;;;;;;;;;11.25;9.00;;;;;9.69;65.67;102523.22;4909000;28;45371;-73
2022/01/20 02:02:36;;;;;;;;;16.00;13.25;;;;;9.73;65.21;102538.31;4908877;28;45441;-73
2022/01/20 02:05:05;;;;;;;;;14.25;11.25;;;;;9.72;65.48;102546.31;4909111;28;45298;-74
2022/01/20 02:21:00;;;;;;;;;12.00;10.00;;;;;9.52;65.49;102536.56;4910300;28;45671;-74
2022/01/20 02:23:27;;;;;;;;;13.75;13.00;;;;;9.36;65.37;102519.66;4905570;29;45231;-74
2022/01/20 02:25:53;;;;;;;;;11.00;10.00;;;;;9.46;65.26;102526.75;4910402;28;45280;-74
2022/01/20 02:28:18;;;;;;;;;15.50;14.75;;;;;9.45;64.85;102522.34;4908998;28;45312;-74
2022/01/20 02:30:44;;;;;;;;;10.25;10.25;;;;;9.35;64.94;102509.00;4906310;28;45487;-74
2022/01/20 02:33:18;;;;;;;;;12.25;10.50;;;;;9.60;64.76;102560.53;4916800;28;45417;-74
2022/01/20 02:35:49;;;;;;;;;12.00;10.75;;;;;9.12;65.25;102476.97;4918294;28;45514;-74
2022/01/20 02:38:22;;;;;;;;;12.50;10.00;;;;;9.39;64.59;102534.78;4903896;29;46223;-74
2022/01/20 02:46:05;;;;;;;;;8.50;7.75;;;;;9.53;64.96;102558.78;4905314;28;45493;-73
2022/01/20 02:48:30;;;;;;;;;10.50;9.75;;;;;9.33;64.60;102519.66;4907687;28;47990;-73
2022/01/20 02:50:57;;;;;;;;;9.00;9.00;;;;;9.26;64.49;102505.41;4924185;28;45382;-74
2022/01/20 02:53:23;;;;;;;;;8.00;8.00;;;;;9.42;64.52;102526.75;4911406;28;45295;-74
2022/01/20 02:55:49;;;;;;;;;11.00;8.25;;;;;9.27;64.45;102504.53;4923447;28;45369;-74
2022/01/20 02:58:14;;;;;;;;;10.00;8.50;;;;;9.14;64.57;102475.19;4905167;28;46200;-74
2022/01/20 03:00:39;;;;;;;;;10.00;9.25;;;;;9.39;64.27;102535.66;4919391;28;45468;-73
2022/01/20 03:03:05;;;;;;;;;13.50;8.75;;;;;9.24;64.69;102507.22;4923473;28;45177;-74
2022/01/20 03:05:31;;;;;;;;;10.75;8.50;;;;;9.42;64.34;102540.09;4914192;28;45380;-74
2022/01/20 03:07:57;;;;;;;;;11.25;9.75;;;;;9.32;64.07;102530.31;4904112;28;47930;-74
2022/01/20 03:10:22;;;;;;;;;8.75;8.75;;;;;9.18;64.52;102509.84;4903434;28;45476;-74
2022/01/20 03:12:48;;;;;;;;;10.75;8.00;;;;;9.11;64.22;102501.88;4904658;28;45313;-73
2022/01/20 03:15:13;;;;;;;;;10.75;8.50;;;;;8.95;64.15;102483.16;4905043;28;45248;-73
2022/01/20 03:17:39;;;;;;;;;9.25;8.25;;;;;8.98;64.12;102509.81;4917072;28;45316;-73
2022/01/20 03:20:05;;;;;;;;;11.75;9.50;;;;;9.00;64.07;102512.47;4915408;28;45213;-73
2022/01/20 03:22:30;;;;;;;;;7.00;4.00;;;;;8.85;64.03;102495.59;4905536;28;45400;-73
2022/01/20 03:24:57;;;;;;;;;7.00;7.00;;;;;9.01;64.17;102531.13;4908918;28;45366;-74
2022/01/20 03:27:23;;;;;;;;;8.00;8.00;;;;;9.07;64.24;102540.91;4909690;28;48299;-73
2022/01/20 03:29:48;;;;;;;;;7.75;7.00;;;;;8.81;64.32;102504.44;4913778;28;45472;-74
2022/01/20 03:32:14;;;;;;;;;9.50;6.00;;;;;8.80;63.76;102502.66;4921489;28;45966;-73
2022/01/20 03:34:39;;;;;;;;;7.00;7.00;;;;;8.97;64.11;102536.44;4923645;28;45283;-73
2022/01/20 03:37:05;;;;;;;;;7.50;6.00;;;;;8.88;63.78;102522.19;4906712;28;46321;-73
2022/01/20 03:39:31;;;;;;;;;7.00;7.00;;;;;8.93;64.11;102534.66;4904495;28;45307;-73
2022/01/20 03:41:57;;;;;;;;;6.00;6.00;;;;;8.97;63.86;102539.09;4907326;28;45356;-74
2022/01/20 03:44:23;;;;;;;;;9.25;7.00;;;;;8.80;63.95;102525.72;4911275;28;46245;-73
2022/01/20 03:46:48;;;;;;;;;13.00;7.25;;;;;8.92;63.67;102552.44;4902958;28;46069;-73
2022/01/20 03:49:39;;;;;;;;;4.50;4.50;;;;;8.74;63.65;102505.31;4914432;28;45333;-74
2022/01/20 03:52:06;;;;;;;;;9.00;9.00;;;;;8.86;64.00;102528.44;4908022;28;45272;-73
2022/01/20 03:54:31;;;;;;;;;7.75;6.00;;;;;8.87;63.73;102549.75;4904230;28;45172;-74
2022/01/20 03:56:57;;;;;;;;;9.50;8.50;;;;;8.87;63.34;102538.19;4913677;28;47522;-72
2022/01/20 03:59:22;;;;;;;;;6.00;6.00;;;;;8.80;63.31;102547.03;4910903;28;46623;-72
2022/01/20 04:01:48;;;;;;;;;9.00;7.00;;;;;8.66;63.65;102523.91;4914476;28;45385;-72
2022/01/20 04:04:13;;;;;;;;;9.25;5.50;;;;;8.96;64.00;102569.31;4903848;28;45249;-72
2022/01/20 04:06:39;;;;;;;;;8.25;6.00;;;;;8.74;63.45;102547.00;4904331;28;46193;-71
2022/01/20 04:09:05;;;;;;;;;6.00;5.25;;;;;8.77;63.45;102555.00;4903908;29;45280;-71
2022/01/20 04:11:30;;;;;;;;;7.75;7.50;;;;;8.67;63.80;102546.09;4902818;29;45422;-72
2022/01/20 04:13:57;;;;;;;;;7.50;7.50;;;;;8.79;63.74;102570.13;4902309;29;45552;-71
2022/01/20 04:16:34;;;;;;;;;5.00;5.00;;;;;8.92;63.52;102603.03;4906871;28;45308;-72
2022/01/20 04:19:03;;;;;;;;;7.00;6.25;;;;;8.63;63.59;102549.63;4916065;28;45568;-71
2022/01/20 04:21:30;;;;;;;;;6.50;6.00;;;;;8.65;63.49;102570.06;4912836;28;45236;-71
2022/01/20 04:23:59;;;;;;;;;10.00;7.75;;;;;8.71;63.44;102590.50;4902515;29;45718;-71
2022/01/20 04:26:25;;;;;;;;;10.75;8.75;;;;;8.51;63.34;102556.66;4919124;28;45442;-72
2022/01/20 04:28:53;;;;;;;;;5.25;5.25;;;;;8.81;63.54;102599.44;4902364;28;45437;-72
2022/01/20 04:31:20;;;;;;;;;10.50;7.75;;;;;8.59;63.23;102575.34;4902387;29;45257;-72
2022/01/20 04:33:46;;;;;;;;;7.25;7.25;;;;;8.56;63.79;102569.13;4918218;28;45565;-72
2022/01/20 04:36:12;;;;;;;;;4.00;3.00;;;;;8.55;63.76;102573.53;4912861;28;45508;-72
2022/01/20 04:38:37;;;;;;;;;7.50;4.75;;;;;8.60;63.45;102584.22;4902407;28;45698;-72
2022/01/20 04:41:03;;;;;;;;;7.25;5.25;;;;;8.70;63.66;102594.03;4902161;29;45359;-71
2022/01/20 04:43:29;;;;;;;;;7.50;6.50;;;;;8.79;63.71;102617.19;4914786;28;45624;-72
2022/01/20 04:46:23;;;;;;;;;11.50;7.75;;;;;8.57;63.43;102578.88;4903040;29;46551;-71
2022/01/20 04:59:23;;;;;;;;;9.00;5.50;;;;;8.46;63.40;102586.81;4911105;28;45309;-72
2022/01/20 05:01:49;;;;;;;;;7.75;7.75;;;;;8.49;63.37;102594.81;4921969;28;45365;-71
2022/01/20 05:04:14;;;;;;;;;6.50;5.00;;;;;8.25;63.47;102544.94;4921342;28;45429;-72
2022/01/20 05:06:41;;;;;;;;;8.00;7.00;;;;;8.52;63.72;102594.84;4920771;28;47084;-71
2022/01/20 05:09:07;;;;;;;;;4.50;4.00;;;;;8.46;63.60;102585.03;4911222;28;45770;-72
2022/01/20 05:11:35;;;;;;;;;5.25;5.00;;;;;8.43;64.07;102584.13;4903195;29;45390;-71
2022/01/20 05:14:00;;;;;;;;;7.00;5.75;;;;;8.26;63.50;102555.59;4901611;28;45485;-72
2022/01/20 05:16:26;;;;;;;;;9.75;6.75;;;;;8.55;63.61;102610.81;4907036;28;47289;-72
2022/01/20 05:18:51;;;;;;;;;11.25;5.25;;;;;8.39;63.30;102577.00;4919792;28;45431;-72
2022/01/20 05:21:17;;;;;;;;;7.25;7.00;;;;;8.39;63.54;102571.66;4922203;28;45371;-72
2022/01/20 05:23:42;;;;;;;;;4.50;4.50;;;;;8.39;63.70;102575.22;4920170;28;45316;-72
2022/01/20 05:26:07;;;;;;;;;10.00;7.75;;;;;8.21;63.88;102546.72;4901406;28;47427;-72
2022/01/20 05:28:33;;;;;;;;;8.00;3.75;;;;;8.35;63.51;102573.38;4912248;28;45411;-72
2022/01/20 05:30:59;;;;;;;;;6.00;6.00;;;;;8.42;63.09;102596.53;4901817;29;45541;-72
2022/01/20 05:33:25;;;;;;;;;4.25;3.50;;;;;8.17;63.26;102544.94;4913430;28;45777;-72
2022/01/20 05:35:51;;;;;;;;;7.00;7.00;;;;;8.37;63.19;102579.63;4903000;29;45395;-72
2022/01/20 05:38:16;;;;;;;;;5.75;4.00;;;;;8.61;63.19;102628.59;4901458;28;45732;-72
2022/01/20 05:40:42;;;;;;;;;7.00;7.00;;;;;8.51;63.55;102623.22;4902975;28;45555;-72
2022/01/20 05:43:07;;;;;;;;;7.50;6.75;;;;;8.30;63.06;102591.09;4915026;28;45382;-72
2022/01/20 05:45:33;;;;;;;;;9.00;5.25;;;;;8.53;63.09;102640.06;4902950;28;45509;-72
2022/01/20 05:48:17;;;;;;;;;3.50;3.00;;;;;8.56;62.93;102651.66;4902862;28;45430;-71
2022/01/20 05:50:43;;;;;;;;;5.00;5.00;;;;;8.30;62.63;102605.31;4921689;28;45430;-71
2022/01/20 05:53:09;;;;;;;;;5.75;5.00;;;;;8.34;62.99;102616.88;4908932;28;45383;-72
2022/01/20 05:55:36;;;;;;;;;6.25;6.25;;;;;8.55;62.96;102655.19;4916484;28;47978;-72
2022/01/20 05:58:04;;;;;;;;;7.50;4.75;;;;;8.53;63.01;102647.19;4919343;28;45614;-71
2022/01/20 06:00:29;;;;;;;;;4.75;3.50;;;;;8.20;62.79;102608.75;4925153;28;45352;-72
2022/01/20 06:05:41;;;;;;;;;3.00;2.75;;;;;8.44;63.00;102656.00;4905734;28;45776;-71
2022/01/20 06:08:07;;;;;;;;;7.25;5.75;;;;;8.24;63.17;102626.53;4905956;28;45478;-71
2022/01/20 06:10:33;;;;;;;;;6.25;4.00;;;;;8.28;63.02;102635.44;4905672;28;45359;-72
2022/01/20 06:12:59;;;;;;;;;4.00;3.25;;;;;8.43;63.25;102662.19;4904359;28;45286;-72
2022/01/20 06:15:24;;;;;;;;;5.25;3.00;;;;;8.34;63.11;102648.78;4904471;28;47745;-72
2022/01/20 06:17:50;;;;;;;;;5.75;3.75;;;;;8.21;62.91;102637.16;4918218;28;45285;-72
2022/01/20 06:20:15;;;;;;;;;2.50;2.50;;;;;8.09;63.04;102621.13;4924256;28;45157;-71
2022/01/20 06:22:41;;;;;;;;;4.00;3.00;;;;;8.18;62.55;102639.78;4904370;28;45249;-72
2022/01/20 06:25:07;;;;;;;;;5.75;2.00;;;;;8.11;62.80;102625.56;4911067;28;47149;-72
2022/01/20 06:27:34;;;;;;;;;2.25;2.25;;;;;8.26;63.05;102647.84;4917599;28;45238;-72
2022/01/20 06:30:00;;;;;;;;;3.00;3.00;;;;;8.38;62.43;102671.00;4922582;28;45410;-72
2022/01/20 06:32:26;;;;;;;;;3.75;3.00;;;;;8.30;62.92;102658.53;4916537;28;45669;-74
2022/01/20 06:34:51;;;;;;;;;3.00;3.00;;;;;8.28;62.73;102654.06;4923551;28;45550;-73
2022/01/20 06:37:17;;;;;;;;;2.00;2.00;;;;;8.15;62.29;102635.34;4910907;28;45486;-74
2022/01/20 06:39:42;;;;;;;;;3.00;3.00;;;;;8.39;62.58;102675.44;4909998;28;45347;-74
2022/01/20 06:42:08;;;;;;;;;6.25;3.75;;;;;8.33;62.17;102671.84;4916240;28;45384;-74
2022/01/20 06:44:33;;;;;;;;;6.50;3.75;;;;;8.40;62.26;102682.53;4915090;28;46176;-74
2022/01/20 06:47:00;;;;;;;;;4.00;4.00;;;;;8.35;62.18;102680.75;4909693;28;45582;-73
2022/01/20 06:49:25;;;;;;;;;3.00;2.00;;;;;8.19;62.56;102654.00;4915430;28;45223;-73
2022/01/20 06:51:51;;;;;;;;;3.00;2.50;;;;;8.14;62.46;102652.19;4920830;28;45421;-73
2022/01/20 06:54:16;;;;;;;;;8.75;4.00;;;;;7.96;62.71;102628.09;4904795;29;46411;-73
2022/01/20 06:56:42;;;;;;;;;5.25;3.50;;;;;8.00;62.39;102635.19;4920819;28;45307;-73
2022/01/20 06:59:11;;;;;;;;;4.25;3.25;;;;;8.33;62.11;102702.88;4906239;28;46662;-73
2022/01/20 07:01:37;;;;;;;;;2.25;2.00;;;;;8.02;62.33;102660.06;4903294;28;45574;-73
2022/01/20 07:04:03;;;;;;;;;3.25;3.00;;;;;8.03;62.39;102666.25;4916976;28;46546;-75
2022/01/20 07:06:28;;;;;;;;;2.00;2.00;;;;;8.00;62.73;102653.81;4903438;28;45388;-70
2022/01/20 07:08:53;;;;;;;;;4.00;2.75;;;;;8.11;62.42;102692.06;4906673;28;46010;-74
2022/01/20 07:11:19;;;;;;;;;5.25;5.25;;;;;8.22;63.05;102709.88;4910130;28;45403;-74
2022/01/20 07:13:44;;;;;;;;;3.00;3.00;;;;;8.19;62.54;102710.75;4909812;28;46466;-74
2022/01/20 07:16:09;;;;;;;;;3.75;2.50;;;;;8.28;62.48;102740.09;4909965;28;45463;-74
2022/01/20 07:18:35;;;;;;;;;7.00;2.75;;;;;8.06;62.40;102709.75;4915322;28;45461;-74
2022/01/20 07:21:00;;;;;;;;;4.00;2.00;;;;;8.04;62.06;102702.63;4914857;28;45409;-74
2022/01/20 07:23:26;;;;;;;;;3.50;2.25;;;;;7.97;62.40;102707.00;4927146;28;47359;-73
2022/01/20 07:25:51;;;;;;;;;5.25;3.25;;;;;8.06;62.03;102724.81;4920450;28;45766;-74
2022/01/20 07:28:17;;;;;;;;;3.00;3.00;;;;;8.06;62.32;102728.34;4917562;28;45355;-74
2022/01/20 07:30:42;;;;;;;;;6.25;4.50;;;;;8.25;62.47;102757.78;4918205;28;45581;-74
2022/01/20 07:33:08;;;;;;;;;6.00;4.00;;;;;7.95;62.28;102724.69;4910461;28;47306;-73
2022/01/20 07:35:34;;;;;;;;;5.25;2.50;;;;;8.03;62.56;102738.06;4915896;28;45546;-73
2022/01/20 07:37:59;;;;;;;;;3.00;2.25;;;;;8.13;62.74;102762.13;4903406;28;45521;-73
2022/01/20 07:40:25;;;;;;;;;4.50;4.00;;;;;8.13;62.65;102764.78;4904213;28;45460;-71
2022/01/20 07:42:50;;;;;;;;;3.00;3.00;;;;;8.06;62.82;102754.06;4914070;28;45308;-71
2022/01/20 07:45:17;;;;;;;;;3.00;3.00;;;;;7.93;62.68;102735.31;4908896;28;45552;-71
2022/01/20 07:47:43;;;;;;;;;4.75;3.25;;;;;8.08;62.75;102761.19;4919227;28;45400;-70
2022/01/20 07:50:09;;;;;;;;;5.00;3.50;;;;;8.02;62.55;102731.88;4905266;28;45251;-71
2022/01/20 07:52:34;;;;;;;;;3.25;3.25;;;;;8.10;62.51;102754.13;4912148;28;45401;-71
2022/01/20 07:54:59;;;;;;;;;5.25;4.00;;;;;8.17;62.86;102749.75;4916700;28;45439;-73
2022/01/20 07:57:25;;;;;;;;;4.00;1.00;;;;;8.13;62.74;102770.09;4906073;28;45436;-73
2022/01/20 07:59:50;;;;;;;;;8.00;7.00;;;;;8.00;62.89;102741.59;4914853;28;45529;-69
2022/01/20 08:02:16;;;;;;;;;4.50;3.00;;;;;7.94;62.93;102731.78;4909607;28;45787;-74
2022/01/20 08:04:42;;;;;;;;;8.00;6.50;;;;;8.00;62.85;102738.03;4917323;28;45326;-74
2022/01/20 08:07:08;;;;;;;;;7.00;6.00;;;;;8.00;63.08;102733.59;4918535;28;45599;-74
2022/01/20 08:09:33;;;;;;;;;5.50;5.25;;;;;7.91;62.96;102720.22;4911992;28;45733;-74
2022/01/20 08:11:58;;;;;;;;;8.00;7.50;;;;;8.16;62.94;102764.81;4919836;28;47850;-74
2022/01/20 08:14:25;;;;;;;;;8.50;7.25;;;;;8.23;62.84;102779.06;4918022;28;45296;-74
2022/01/20 08:16:51;;;;;;;;;7.25;5.50;;;;;8.06;62.52;102739.00;4915195;28;45482;-74
2022/01/20 08:19:16;;;;;;;;;4.00;4.00;;;;;8.00;62.93;102725.63;4910822;28;45398;-74
2022/01/20 08:21:42;;;;;;;;;8.00;6.50;;;;;8.21;62.73;102761.31;4924248;28;47178;-74
2022/01/20 08:24:07;;;;;;;;;7.00;4.25;;;;;8.25;63.01;102766.69;4913732;28;45408;-72
2022/01/20 08:26:33;;;;;;;;;8.00;6.50;;;;;8.32;63.31;102779.16;4917160;28;45616;-72
2022/01/20 08:28:59;;;;;;;;;6.00;6.00;;;;;8.10;63.41;102737.25;4912694;28;45451;-72
2022/01/20 08:31:24;;;;;;;;;6.50;6.50;;;;;8.17;62.87;102739.13;4914742;28;47044;-72
2022/01/20 08:33:50;;;;;;;;;6.50;6.25;;;;;8.42;63.19;102781.91;4904257;28;45623;-72
2022/01/20 08:36:15;;;;;;;;;6.00;6.00;;;;;8.34;63.41;102765.88;4918461;28;45417;-72
2022/01/20 08:38:41;;;;;;;;;7.00;7.00;;;;;8.28;62.53;102750.72;4909192;28;45441;-72
2022/01/20 08:41:07;;;;;;;;;8.50;7.50;;;;;8.33;62.72;102761.44;4923681;28;46996;-72
2022/01/20 08:43:38;;;;;;;;;8.75;8.00;;;;;8.29;63.12;102751.66;4920154;28;45947;-72
2022/01/20 08:46:09;;;;;;;;;9.75;7.00;;;;;8.29;62.65;102754.31;4914686;28;45533;-72
2022/01/20 08:48:36;;;;;;;;;8.50;5.50;;;;;8.35;62.69;102759.66;4911610;28;45490;-72
2022/01/20 08:51:01;;;;;;;;;8.00;7.00;;;;;8.30;62.92;102762.31;4913642;28;46187;-72
2022/01/20 08:53:27;;;;;;;;;13.75;7.75;;;;;8.56;63.04;102811.38;4917740;28;45549;-72
2022/01/20 08:55:53;;;;;;;;;9.50;7.75;;;;;8.28;62.36;102755.16;4901899;28;45404;-72
2022/01/20 08:58:19;;;;;;;;;5.75;5.75;;;;;8.52;62.51;102795.34;4911344;28;45797;-72
2022/01/20 09:00:44;;;;;;;;;7.75;6.75;;;;;8.39;62.68;102769.47;4910697;28;45940;-72
2022/01/20 09:03:09;;;;;;;;;8.00;6.25;;;;;8.35;62.84;102738.38;4915790;28;45610;-72
2022/01/20 09:05:35;;;;;;;;;8.25;7.00;;;;;8.62;62.79;102783.03;4911472;28;45384;-72
2022/01/20 09:08:02;;;;;;;;;7.75;7.75;;;;;8.60;62.62;102795.41;4910424;28;47071;-72
2022/01/20 09:10:29;;;;;;;;;11.00;8.50;;;;;8.61;62.60;102793.66;4908184;28;46751;-72
2022/01/20 09:15:39;;;;;;;;;8.25;8.00;;;;;8.56;63.24;102793.59;4919399;28;45572;-71
2022/01/20 09:18:08;;;;;;;;;8.00;8.00;;;;;8.66;62.75;102807.91;4909540;28;45537;-72
2022/01/20 09:20:36;;;;;;;;;7.00;7.00;;;;;8.33;62.66;102751.66;4916537;28;45572;-72
2022/01/20 09:23:03;;;;;;;;;4.25;4.25;;;;;8.44;62.75;102765.13;4912387;28;45622;-72
2022/01/20 09:25:28;;;;;;;;;8.25;7.75;;;;;8.46;62.79;102778.44;4919163;28;45386;-73
2022/01/20 09:28:20;;;;;;;;;8.50;8.25;;;;;8.56;62.65;102801.59;4918209;28;45433;-72
2022/01/20 09:30:46;;;;;;;;;10.75;8.25;;;;;8.73;62.78;102833.69;4911465;28;45500;-76
2022/01/20 09:33:23;;;;;;;;;7.75;5.25;;;;;8.56;62.59;102803.38;4913066;28;45865;-73
2022/01/20 09:35:49;;;;;;;;;10.00;8.00;;;;;8.50;62.34;102802.44;4907806;28;45434;-72
2022/01/20 09:38:14;;;;;;;;;12.50;8.25;;;;;8.49;62.41;102799.75;4919132;28;45378;-72
2022/01/20 09:40:42;;;;;;;;;9.00;8.00;;;;;8.75;62.25;102831.03;4907779;28;45535;-72
2022/01/20 09:43:11;;;;;;;;;10.50;7.00;;;;;8.71;62.12;102822.13;4922572;28;45540;-72
2022/01/20 09:45:38;;;;;;;;;12.25;8.00;;;;;8.74;62.54;102818.59;4914951;28;45377;-72
2022/01/20 09:48:03;;;;;;;;;7.00;7.00;;;;;8.86;62.21;102830.25;4922692;28;45569;-72
2022/01/20 09:50:29;;;;;;;;;12.25;9.25;;;;;8.70;62.41;102802.63;4921932;28;46448;-72
2022/01/20 09:53:01;;;;;;;;;9.25;8.25;;;;;8.69;62.64;102799.94;4914832;28;45334;-72
2022/01/20 09:55:27;;;;;;;;;9.75;8.75;;;;;8.85;62.83;102822.25;4916666;28;45425;-72
2022/01/20 09:57:53;;;;;;;;;10.75;9.25;;;;;8.70;62.58;102797.28;4915118;28;45324;-72
2022/01/20 10:00:20;;;;;;;;;13.75;9.00;;;;;8.64;62.90;102781.25;4921324;28;47150;-74
2022/01/20 10:02:56;;;;;;;;;11.50;8.75;;;;;8.76;62.74;102804.44;4911731;28;45472;-75
2022/01/20 10:05:47;;;;;;;;;10.75;9.75;;;;;8.95;62.41;102831.22;4917610;28;45488;-72
2022/01/20 10:08:27;;;;;;;;;11.00;10.75;;;;;8.74;62.71;102792.88;4922090;28;45738;-72
2022/01/20 10:10:58;;;;;;;;;11.75;11.75;;;;;8.95;62.63;102836.53;4911837;28;47651;-72
2022/01/20 10:13:27;;;;;;;;;13.00;8.75;;;;;8.95;62.18;102839.19;4920445;28;45335;-72
2022/01/20 10:16:17;;;;;;;;;14.75;14.00;;;;;8.82;62.75;102817.81;4928965;28;45484;-71
2022/01/20 10:18:57;;;;;;;;;11.00;10.00;;;;;8.90;62.52;102821.41;4915273;28;45752;-72
2022/01/20 10:21:36;;;;;;;;;13.00;10.25;;;;;9.08;62.83;102857.06;4907810;28;45464;-72
2022/01/20 10:24:11;;;;;;;;;13.75;10.25;;;;;8.90;62.97;102837.41;4923417;28;45475;-72
2022/01/20 10:26:38;;;;;;;;;10.75;10.75;;;;;9.05;62.37;102862.38;4918414;28;45379;-72
2022/01/20 10:29:05;;;;;;;;;11.25;11.25;;;;;9.15;62.95;102874.88;4919023;28;45777;-72
2022/01/20 10:31:37;;;;;;;;;11.00;8.25;;;;;8.97;62.52;102833.00;4917968;28;45522;-72
2022/01/20 10:34:06;;;;;;;;;9.50;9.00;;;;;9.15;62.63;102868.66;4917075;28;45581;-72
2022/01/20 10:36:38;;;;;;;;;11.00;10.00;;;;;9.19;63.15;102870.47;4906907;28;45581;-72
2022/01/20 10:39:04;;;;;;;;;14.50;13.00;;;;;9.14;62.51;102866.84;4914417;28;45383;-72
2022/01/20 10:41:36;;;;;;;;;10.00;9.75;;;;;9.18;61.98;102874.00;4907727;28;47316;-72
2022/01/20 10:44:11;;;;;;;;;10.00;9.25;;;;;9.09;61.74;102865.06;4911343;28;45735;-72
2022/01/20 10:46:54;;;;;;;;;13.00;9.75;;;;;9.15;62.06;102879.31;4910144;28;45315;-72
2022/01/20 10:49:27;;;;;;;;;13.50;10.50;;;;;9.04;61.98;102860.59;4908469;28;45637;-72
2022/01/20 10:52:12;;;;;;;;;10.00;8.75;;;;;8.93;61.90;102848.97;4918253;28;45629;-72
2022/01/20 10:54:47;;;;;;;;;13.00;10.00;;;;;9.12;61.66;102877.53;4903494;28;45695;-72
2022/01/20 10:57:17;;;;;;;;;12.25;10.00;;;;;9.15;61.95;102880.19;4916768;28;45444;-72
2022/01/20 10:59:52;;;;;;;;;12.75;10.00;;;;;9.10;62.17;102857.97;4922920;28;45545;-72
2022/01/20 11:02:20;;;;;;;;;12.75;9.25;;;;;9.19;62.54;102863.38;4918940;28;46199;-72
2022/01/20 11:04:46;;;;;;;;;16.00;14.75;;;;;9.13;62.53;102855.31;4909564;28;45802;-72
2022/01/20 11:07:12;;;;;;;;;18.75;12.00;;;;;9.08;62.48;102841.06;4903530;28;45337;-72
2022/01/20 11:09:42;;;;;;;;;13.25;11.50;;;;;9.00;61.77;102830.34;4922421;28;45482;-72
2022/01/20 11:12:10;;;;;;;;;12.00;9.50;;;;;9.07;61.75;102836.63;4902542;28;47373;-72
2022/01/20 11:14:36;;;;;;;;;10.00;10.00;;;;;9.00;61.73;102838.34;4910214;28;45519;-72
2022/01/20 11:17:03;;;;;;;;;10.00;9.25;;;;;9.34;61.90;102883.00;4908371;28;45962;-72
2022/01/20 11:19:35;;;;;;;;;8.75;8.25;;;;;9.05;61.83;102830.38;4909161;28;45831;-74
2022/01/20 11:22:11;;;;;;;;;8.50;8.25;;;;;9.24;61.47;102858.09;4920454;28;48299;-74
2022/01/20 11:24:38;;;;;;;;;11.50;10.25;;;;;9.11;61.19;102832.22;4911934;28;45793;-73
2022/01/20 11:27:05;;;;;;;;;12.25;12.25;;;;;9.16;61.31;102839.38;4916973;28;45495;-73
2022/01/20 11:29:41;;;;;;;;;10.00;10.00;;;;;9.16;61.93;102839.38;4912151;28;45952;-72
2022/01/20 11:32:17;;;;;;;;;11.00;8.00;;;;;9.35;61.73;102868.81;4907418;28;45388;-72
2022/01/20 11:34:57;;;;;;;;;11.00;9.75;;;;;9.15;61.70;102839.34;4921111;28;45362;-74
2022/01/20 11:37:23;;;;;;;;;14.25;11.50;;;;;9.32;61.65;102871.44;4922174;28;45471;-71
2022/01/20 11:39:53;;;;;;;;;9.50;5.00;;;;;9.30;61.05;102862.56;4919369;28;45421;-72
2022/01/20 11:42:20;;;;;;;;;11.00;9.00;;;;;9.28;61.25;102863.41;4909863;28;46605;-72
2022/01/20 11:44:45;;;;;;;;;9.75;8.25;;;;;8.94;61.44;102809.00;4908926;28;45499;-71
2022/01/20 11:47:11;;;;;;;;;8.50;4.50;;;;;9.24;61.15;102852.75;4919908;28;45373;-71
2022/01/20 11:49:39;;;;;;;;;6.50;5.00;;;;;9.15;61.63;102820.69;4912556;28;45644;-71
2022/01/20 11:52:05;;;;;;;;;9.00;6.00;;;;;9.21;61.09;102850.06;4912350;28;46242;-71
2022/01/20 11:54:35;;;;;;;;;7.00;7.00;;;;;9.35;61.13;102872.34;4920159;28;47458;-71
2022/01/20 11:57:12;;;;;;;;;6.50;4.00;;;;;9.33;61.01;102875.91;4919163;28;45613;-71
2022/01/20 11:59:37;;;;;;;;;4.00;3.25;;;;;9.35;60.82;102864.34;4905405;28;45509;-72
2022/01/20 12:02:03;;;;;;;;;3.00;3.00;;;;;9.12;60.86;102824.25;4909169;28;45517;-71
2022/01/20 12:04:40;;;;;;;;;4.50;3.00;;;;;9.34;60.49;102856.34;4912207;28;46184;-68
2022/01/20 12:07:09;;;;;;;;;8.00;5.00;;;;;9.30;60.48;102858.09;4904011;28;45488;-71
2022/01/20 12:09:40;;;;;;;;;3.75;3.00;;;;;9.37;59.76;102872.34;4908362;28;45889;-71
2022/01/20 12:12:18;;;;;;;;;6.00;4.50;;;;;9.36;59.98;102875.94;4925150;28;47509;-72
2022/01/20 12:14:44;;;;;;;;;4.50;4.00;;;;;9.24;59.97;102856.28;4910073;28;45543;-73
2022/01/20 12:17:13;;;;;;;;;5.25;5.25;;;;;9.35;60.52;102874.13;4904203;28;45510;-71
2022/01/20 12:19:38;;;;;;;;;8.50;4.25;;;;;9.30;60.53;102862.56;4907565;28;45565;-73
2022/01/20 12:22:05;;;;;;;;;4.50;4.00;;;;;9.39;60.43;102875.97;4917781;28;45959;-68
2022/01/20 12:24:35;;;;;;;;;8.00;5.50;;;;;9.38;60.16;102863.50;4912804;28;45633;-72
2022/01/20 12:27:01;;;;;;;;;6.50;5.00;;;;;9.46;59.93;102877.78;4916959;28;45795;-72
2022/01/20 12:29:37;;;;;;;;;3.50;3.50;;;;;9.40;59.44;102867.94;4909006;28;45574;-74
2022/01/20 12:32:13;;;;;;;;;3.00;1.50;;;;;9.41;59.35;102879.50;4899540;28;46179;-72
2022/01/20 12:34:39;;;;;;;;;3.25;2.25;;;;;9.42;59.20;102875.94;4915085;28;45991;-72
2022/01/20 12:37:06;;;;;;;;;4.50;3.00;;;;;9.36;59.27;102874.16;4905510;28;45870;-74
2022/01/20 12:39:35;;;;;;;;;7.00;4.50;;;;;9.35;58.93;102860.81;4915818;28;45786;-74
2022/01/20 12:42:08;;;;;;;;;7.25;3.75;;;;;9.22;58.92;102836.75;4913158;28;46353;-77
2022/01/20 12:44:46;;;;;;;;;5.50;4.25;;;;;9.38;59.31;102868.81;4912683;28;45408;-74
2022/01/20 12:47:12;;;;;;;;;5.00;5.00;;;;;9.37;58.81;102864.38;4918036;28;45811;-74
2022/01/20 12:49:38;;;;;;;;;3.75;3.00;;;;;9.34;58.96;102862.59;4915239;28;45834;-77
2022/01/20 12:52:06;;;;;;;;;8.00;3.00;;;;;9.28;58.60;102859.88;4908487;28;45452;-75
2022/01/20 12:54:34;;;;;;;;;3.75;3.00;;;;;9.31;58.35;102870.56;4911559;28;45437;-75
2022/01/20 12:57:05;;;;;;;;;1.50;1.50;;;;;9.33;58.78;102884.78;4901878;28;45589;-74
2022/01/20 12:59:37;;;;;;;;;5.00;3.00;;;;;9.27;58.87;102871.41;4907023;28;45901;-73
2022/01/20 13:02:06;;;;;;;;;2.00;2.00;;;;;9.33;58.61;102879.44;4915281;28;45581;-72
2022/01/20 13:04:33;;;;;;;;;3.00;2.75;;;;;9.25;58.49;102874.09;4920288;28;45284;-73
2022/01/20 13:07:02;;;;;;;;;4.50;3.50;;;;;9.18;58.20;102861.56;4916612;28;45747;-73
2022/01/20 13:09:49;;;;;;;;;2.25;2.25;;;;;9.24;58.94;102869.63;4915285;28;45517;-73
2022/01/20 13:12:18;;;;;;;;;7.25;2.75;;;;;9.27;58.13;102859.00;4910440;28;47000;-73
2022/01/20 13:14:46;;;;;;;;;4.00;2.00;;;;;9.36;58.04;102874.16;4911921;28;45759;-73
2022/01/20 13:17:23;;;;;;;;;3.50;3.25;;;;;9.33;58.21;102868.78;4903174;28;45423;-73
2022/01/20 13:19:49;;;;;;;;;4.00;3.00;;;;;9.37;58.29;102872.34;4919455;28;45319;-73
2022/01/20 13:22:32;;;;;;;;;3.75;3.00;;;;;9.23;57.95;102838.50;4905212;28;45409;-73
2022/01/20 13:25:08;;;;;;;;;4.50;3.00;;;;;9.37;58.12;102853.69;4916217;28;46154;-73
2022/01/20 13:27:35;;;;;;;;;3.75;3.00;;;;;9.36;58.09;102849.28;4916574;28;45779;-73
2022/01/20 13:30:01;;;;;;;;;8.50;4.75;;;;;9.42;58.10;102857.28;4920106;28;45544;-73
2022/01/20 13:32:26;;;;;;;;;4.25;2.00;;;;;9.47;57.49;102852.88;4905079;28;45439;-73
2022/01/20 13:34:57;;;;;;;;;3.00;2.25;;;;;9.43;57.30;102838.63;4909655;28;45330;-73
2022/01/20 13:37:23;;;;;;;;;4.50;3.00;;;;;9.48;57.52;102838.66;4902392;28;45469;-73
2022/01/20 13:39:50;;;;;;;;;2.75;1.00;;;;;9.52;57.16;102837.81;4904390;28;45538;-73
2022/01/20 13:42:44;;;;;;;;;7.50;3.25;;;;;9.50;57.01;102836.91;4904929;28;45959;-73
2022/01/20 13:45:13;;;;;;;;;2.25;1.75;;;;;9.53;56.64;102830.72;4903856;28;45387;-73
2022/01/20 13:47:48;;;;;;;;;3.25;2.25;;;;;9.57;56.16;102833.41;4902428;28;45642;-73
2022/01/20 13:50:35;;;;;;;;;3.50;2.00;;;;;9.58;56.13;102834.28;4918767;28;45470;-73
2022/01/20 13:53:12;;;;;;;;;2.75;1.50;;;;;9.57;56.44;102833.41;4913937;28;47095;-73
2022/01/20 13:55:40;;;;;;;;;3.25;2.00;;;;;9.58;56.21;102823.63;4915640;28;45595;-73
2022/01/20 13:58:06;;;;;;;;;2.00;2.00;;;;;9.60;55.54;102843.19;4919008;28;45336;-73